createdAt,value
2023-02-19T00:00:33.991Z,0.8
2023-02-19T00:03:29.298Z,0.8
2023-02-19T00:06:29.627Z,0.8
2023-02-19T00:09:33.498Z,0.8
2023-02-19T00:12:28.893Z,0.8
2023-02-19T00:15:29.910Z,0.8
2023-02-19T00:18:32.695Z,0.8
2023-02-19T00:21:29.126Z,0.8
2023-02-19T00:24:35.500Z,0.8
2023-02-19T00:27:29.759Z,0.8
2023-02-19T00:30:32.915Z,0.8
2023-02-19T00:33:29.392Z,0.8
2023-02-19T00:36:28.452Z,0.8
2023-02-19T00:39:33.126Z,0.8
2023-02-19T00:42:29.022Z,0.8
2023-02-19T00:45:29.082Z,0.8
2023-02-19T00:48:32.898Z,0.8
2023-02-19T00:51:28.947Z,0.8
2023-02-19T00:54:29.295Z,0.8
2023-02-19T00:57:33.101Z,0.8
2023-02-19T01:00:29.331Z,0.8
2023-02-19T01:03:29.445Z,0.8
2023-02-19T01:06:29.423Z,0.8
2023-02-19T01:09:33.328Z,0.8
2023-02-19T01:12:28.951Z,0.8
2023-02-19T01:15:29.091Z,0.8
2023-02-19T01:18:32.865Z,0.8
2023-02-19T01:21:28.948Z,0.8
2023-02-19T01:24:28.755Z,0.8
2023-02-19T01:27:32.312Z,0.8
2023-02-19T01:30:29.025Z,0.8
2023-02-19T01:33:29.152Z,0.8
2023-02-19T01:36:32.878Z,0.8
2023-02-19T01:39:29.204Z,0.8
2023-02-19T01:42:29.018Z,0.8
2023-02-19T01:45:29.074Z,0.8
2023-02-19T01:48:32.705Z,0.8
2023-02-19T01:51:28.970Z,0.8
2023-02-19T01:54:28.913Z,0.8
2023-02-19T01:57:32.469Z,0.8
2023-02-19T02:00:29.227Z,0.8
2023-02-19T02:03:29.337Z,0.8
2023-02-19T02:06:32.997Z,0.8
2023-02-19T02:09:29.694Z,0.8
2023-02-19T02:12:29.037Z,0.8
2023-02-19T02:15:32.863Z,0.8
2023-02-19T02:18:29.506Z,0.8
2023-02-19T02:21:28.887Z,0.8
2023-02-19T02:24:29.187Z,0.8
2023-02-19T02:27:33.028Z,0.8
2023-02-19T02:30:29.817Z,0.8
2023-02-19T02:33:29.454Z,0.8
2023-02-19T02:36:33.128Z,0.8
2023-02-19T02:39:29.372Z,0.8
2023-02-19T02:42:29.414Z,0.8
2023-02-19T02:45:33.149Z,0.8
2023-02-19T02:48:28.516Z,0.8
2023-02-19T02:51:28.892Z,0.8
2023-02-19T02:54:32.838Z,0.8
2023-02-19T02:57:29.023Z,0.8
2023-02-19T03:00:30.005Z,0.8
2023-02-19T03:03:32.674Z,0.8
2023-02-19T03:06:29.165Z,0.8
2023-02-19T03:09:29.652Z,0.8
2023-02-19T03:12:28.962Z,0.8
2023-02-19T03:15:32.802Z,0.8
2023-02-19T03:18:29.231Z,0.8
2023-02-19T03:21:29.372Z,0.8
2023-02-19T03:24:33.240Z,0.8
2023-02-19T03:27:29.437Z,0.8
2023-02-19T03:30:29.951Z,0.8
2023-02-19T03:33:32.966Z,0.8
2023-02-19T03:36:29.830Z,0.8
2023-02-19T03:39:29.251Z,0.8
2023-02-19T03:42:32.943Z,0.8
2023-02-19T03:45:29.077Z,0.8
2023-02-19T03:48:29.221Z,0.8
2023-02-19T03:51:29.539Z,0.8
2023-02-19T03:54:33.213Z,0.8
2023-02-19T03:57:28.835Z,0.8
2023-02-19T04:00:29.912Z,0.8
2023-02-19T04:03:32.750Z,0.8
2023-02-19T04:06:29.196Z,0.8
2023-02-19T04:09:29.383Z,0.8
2023-02-19T04:12:32.971Z,0.8
2023-02-19T04:15:29.241Z,0.8
2023-02-19T04:18:29.373Z,0.8
2023-02-19T04:21:32.279Z,0.8
2023-02-19T04:24:28.606Z,0.8
2023-02-19T04:27:28.768Z,0.8
2023-02-19T04:30:30.598Z,0.8
2023-02-19T04:33:32.372Z,0.8
2023-02-19T04:36:29.586Z,0.8
2023-02-19T04:39:28.883Z,0.8
2023-02-19T04:42:32.578Z,0.8
2023-02-19T04:45:28.703Z,0.8
2023-02-19T04:48:28.847Z,0.8
2023-02-19T04:51:32.845Z,0.8
2023-02-19T04:54:29.145Z,0.8
2023-02-19T04:57:28.840Z,0.8
2023-02-19T05:02:31.131Z,0.8
2023-02-19T05:03:29.198Z,0.8
2023-02-19T05:06:29.252Z,0.8
2023-02-19T05:09:29.481Z,0.8
2023-02-19T05:12:32.379Z,0.8
2023-02-19T05:15:28.715Z,0.8
2023-02-19T05:18:28.875Z,0.8
2023-02-19T05:21:33.026Z,0.8
2023-02-19T05:24:29.336Z,0.8
2023-02-19T05:27:28.643Z,0.8
2023-02-19T05:30:33.040Z,0.8
2023-02-19T05:33:29.417Z,0.8
2023-02-19T05:36:29.438Z,0.8
2023-02-19T05:39:32.425Z,0.8
2023-02-19T05:42:28.746Z,0.8
2023-02-19T05:45:28.708Z,0.8
2023-02-19T05:48:28.865Z,0.8
2023-02-19T05:51:32.667Z,0.8
2023-02-19T05:54:29.133Z,0.8
2023-02-19T05:57:29.297Z,0.8
2023-02-19T06:00:33.268Z,0.8
2023-02-19T06:03:29.505Z,0.8
2023-02-19T06:06:29.592Z,0.8
2023-02-19T06:09:32.613Z,0.8
2023-02-19T06:12:29.157Z,0.8
2023-02-19T06:15:29.420Z,0.8
2023-02-19T06:18:32.250Z,0.9
2023-02-19T06:21:28.831Z,0.9
2023-02-19T06:24:29.007Z,0.9
2023-02-19T06:27:29.480Z,0.9
2023-02-19T06:30:33.018Z,1.2
2023-02-19T06:33:28.736Z,1.2
2023-02-19T06:36:29.009Z,1.2
2023-02-19T06:39:33.041Z,1.5
2023-02-19T06:42:29.747Z,1.5
2023-02-19T06:45:28.939Z,1.5
2023-02-19T06:48:32.694Z,2
2023-02-19T06:51:29.124Z,2
2023-02-19T06:54:29.480Z,2
2023-02-19T06:57:32.630Z,2.4
2023-02-19T07:00:28.887Z,2.4
2023-02-19T07:03:29.015Z,2.4
2023-02-19T07:06:29.417Z,2.4
2023-02-19T07:09:32.797Z,2.8
2023-02-19T07:12:29.528Z,2.8
2023-02-19T07:15:29.746Z,2.8
2023-02-19T07:18:32.678Z,3.3
2023-02-19T07:21:29.285Z,3.3
2023-02-19T07:24:29.319Z,3.3
2023-02-19T07:27:33.094Z,3.7
2023-02-19T07:30:29.189Z,3.7
2023-02-19T07:33:29.277Z,3.7
2023-02-19T07:36:33.325Z,4
2023-02-19T07:39:29.054Z,4
2023-02-19T07:42:29.291Z,4
2023-02-19T07:45:29.677Z,4
2023-02-19T07:48:32.794Z,4.2
2023-02-19T07:51:29.418Z,4.2
2023-02-19T07:54:28.873Z,4.2
2023-02-19T07:57:33.195Z,4.3
2023-02-19T08:00:31.023Z,4.3
2023-02-19T08:03:29.880Z,4.3
2023-02-19T08:06:33.360Z,4.4
2023-02-19T08:09:29.329Z,4.4
2023-02-19T08:12:29.599Z,4.4
2023-02-19T08:15:32.856Z,4.5
2023-02-19T08:18:29.552Z,4.5
2023-02-19T08:21:28.946Z,4.5
2023-02-19T08:24:29.082Z,4.5
2023-02-19T08:27:33.132Z,4.6
2023-02-19T08:30:30.455Z,4.6
2023-02-19T08:33:29.168Z,4.6
2023-02-19T08:36:32.328Z,4.7
2023-02-19T08:39:29.291Z,4.7
2023-02-19T08:42:29.696Z,4.7
2023-02-19T08:45:32.561Z,4.7
2023-02-19T08:48:29.281Z,4.7
2023-02-19T08:51:29.421Z,4.7
2023-02-19T08:54:32.589Z,4.8
2023-02-19T08:57:29.031Z,4.8
2023-02-19T09:00:29.486Z,4.8
2023-02-19T09:03:29.073Z,4.8
2023-02-19T09:06:33.177Z,4.8
2023-02-19T09:09:28.991Z,4.8
2023-02-19T09:12:29.565Z,4.8
2023-02-19T09:15:32.871Z,4.9
2023-02-19T09:18:29.663Z,4.9
2023-02-19T09:21:28.869Z,4.9
2023-02-19T09:24:33.111Z,4.9
2023-02-19T09:27:29.578Z,4.9
2023-02-19T09:30:29.588Z,4.9
2023-02-19T09:33:32.752Z,4.9
2023-02-19T09:36:29.211Z,4.9
2023-02-19T09:39:29.626Z,4.9
2023-02-19T09:42:29.098Z,4.9
2023-02-19T09:45:33.174Z,4.9
2023-02-19T09:48:28.577Z,4.9
2023-02-19T09:51:28.697Z,4.9
2023-02-19T09:54:32.821Z,4.9
2023-02-19T09:57:29.026Z,4.9
2023-02-19T10:00:29.404Z,4.9
2023-02-19T10:03:33.352Z,5
2023-02-19T10:06:28.867Z,5
2023-02-19T10:09:30.077Z,5
2023-02-19T10:12:33.037Z,4.9
2023-02-19T10:15:28.883Z,4.9
2023-02-19T10:18:29.263Z,4.9
2023-02-19T10:21:29.573Z,4.9
2023-02-19T10:24:33.103Z,5
2023-02-19T10:27:29.683Z,5
2023-02-19T10:30:29.324Z,5
2023-02-19T10:33:32.566Z,5.1
2023-02-19T10:36:33.064Z,5.1
2023-02-19T10:39:29.602Z,5.1
2023-02-19T10:42:32.948Z,5.3
2023-02-19T10:45:29.511Z,5.3
2023-02-19T10:48:29.657Z,5.3
2023-02-19T10:51:33.301Z,5.4
2023-02-19T10:54:28.978Z,5.4
2023-02-19T10:57:29.733Z,5.4
2023-02-19T11:00:29.477Z,5.4
2023-02-19T11:03:33.274Z,5.5
2023-02-19T11:06:29.069Z,5.5
2023-02-19T11:09:29.478Z,5.5
2023-02-19T11:12:33.434Z,5.6
2023-02-19T11:15:29.309Z,5.6
2023-02-19T11:18:29.717Z,5.6
2023-02-19T11:21:32.723Z,5.6
2023-02-19T11:24:29.428Z,5.6
2023-02-19T11:27:29.661Z,5.6
2023-02-19T11:30:37.376Z,5.9
2023-02-19T11:33:29.752Z,5.9
2023-02-19T11:36:31.484Z,5.9
2023-02-19T11:39:29.058Z,5.9
2023-02-19T11:42:33.931Z,6.1
2023-02-19T11:45:29.604Z,6.1
2023-02-19T11:48:30.886Z,6.1
2023-02-19T11:51:33.154Z,6.1
2023-02-19T11:54:29.948Z,6.1
2023-02-19T11:57:29.222Z,6.1
2023-02-19T12:00:33.300Z,6.1
2023-02-19T12:03:28.674Z,6.1
2023-02-19T12:06:29.010Z,6.1
2023-02-19T12:09:33.186Z,6.1
2023-02-19T12:12:28.943Z,6.1
2023-02-19T12:15:29.410Z,6.1
2023-02-19T12:18:29.631Z,6.1
2023-02-19T12:21:32.500Z,6.2
2023-02-19T12:24:29.031Z,6.2
2023-02-19T12:27:29.065Z,6.2
2023-02-19T12:30:33.907Z,6.2
2023-02-19T12:33:29.382Z,6.2
2023-02-19T12:36:29.652Z,6.2
2023-02-19T12:39:32.702Z,6.3
2023-02-19T12:42:29.329Z,6.3
2023-02-19T12:45:29.425Z,6.3
2023-02-19T12:48:32.410Z,6.3
2023-02-19T12:51:28.974Z,6.3
2023-02-19T12:54:29.431Z,6.3
2023-02-19T12:57:28.814Z,6.3
2023-02-19T13:00:32.947Z,6.1
2023-02-19T13:03:29.667Z,6.1
2023-02-19T13:06:29.226Z,6.1
2023-02-19T13:09:33.110Z,6
2023-02-19T13:12:29.628Z,6
2023-02-19T13:15:28.944Z,6
2023-02-19T13:18:33.003Z,6
2023-02-19T13:21:29.620Z,6
2023-02-19T13:24:29.218Z,6
2023-02-19T13:27:32.618Z,5.9
2023-02-19T13:30:29.730Z,5.9
2023-02-19T13:33:29.044Z,5.9
2023-02-19T13:36:29.288Z,5.9
2023-02-19T13:39:35.588Z,5.8
2023-02-19T13:42:29.127Z,5.8
2023-02-19T13:45:29.763Z,5.8
2023-02-19T13:48:33.166Z,5.7
2023-02-19T13:51:29.828Z,5.7
2023-02-19T13:54:29.361Z,5.7
2023-02-19T13:57:33.379Z,5.6
2023-02-19T14:00:30.137Z,5.6
2023-02-19T14:03:29.472Z,5.6
2023-02-19T14:06:33.198Z,5.5
2023-02-19T14:09:29.969Z,5.5
2023-02-19T14:12:29.532Z,5.5
2023-02-19T14:15:29.245Z,5.5
2023-02-19T14:18:34.476Z,5.4
2023-02-19T14:21:29.092Z,5.4
2023-02-19T14:24:29.244Z,5.4
2023-02-19T14:27:32.617Z,5.3
2023-02-19T14:30:30.461Z,5.3
2023-02-19T14:33:29.299Z,5.3
2023-02-19T14:36:32.478Z,5.2
2023-02-19T14:39:29.134Z,5.2
2023-02-19T14:42:29.293Z,5.2
2023-02-19T14:45:33.194Z,5.2
2023-02-19T14:48:28.928Z,5.2
2023-02-19T14:51:29.603Z,5.2
2023-02-19T14:54:29.243Z,5.2
2023-02-19T14:57:32.419Z,5.1
2023-02-19T15:00:29.139Z,5.1
2023-02-19T15:03:28.764Z,5.1
2023-02-19T15:06:32.570Z,5
2023-02-19T15:09:29.375Z,5
2023-02-19T15:12:29.587Z,5
2023-02-19T15:15:32.966Z,4.9
2023-02-19T15:18:29.573Z,4.9
2023-02-19T15:21:29.211Z,4.9
2023-02-19T15:24:33.303Z,4.7
2023-02-19T15:27:29.286Z,4.7
2023-02-19T15:30:29.902Z,4.7
2023-02-19T15:33:29.741Z,4.7
2023-02-19T15:36:32.624Z,4.6
2023-02-19T15:39:29.708Z,4.6
2023-02-19T15:42:29.124Z,4.6
2023-02-19T15:45:33.091Z,4.5
2023-02-19T15:48:29.114Z,4.5
2023-02-19T15:51:29.531Z,4.5
2023-02-19T15:54:33.398Z,4.5
2023-02-19T15:57:29.194Z,4.5
2023-02-19T16:00:29.866Z,4.5
2023-02-19T16:03:32.989Z,4.3
2023-02-19T16:06:29.537Z,4.3
2023-02-19T16:09:29.068Z,4.3
2023-02-19T16:12:29.434Z,4.3
2023-02-19T16:15:32.774Z,4.2
2023-02-19T16:18:29.247Z,4.2
2023-02-19T16:21:29.045Z,4.2
2023-02-19T21:06:33.636Z,3.8
2023-02-19T21:09:29.162Z,3.8
2023-02-19T21:12:29.513Z,3.8
2023-02-19T21:15:32.568Z,3.3
2023-02-19T21:18:29.226Z,3.3
2023-02-19T21:21:29.423Z,3.3
2023-02-19T21:24:28.655Z,3.3
2023-02-19T21:27:32.448Z,2.9
2023-02-19T21:30:29.023Z,2.9
2023-02-19T21:33:29.373Z,2.9
2023-02-19T21:36:32.381Z,2.5
2023-02-19T21:39:29.285Z,2.5
2023-02-19T21:42:29.420Z,2.5
2023-02-19T21:45:33.616Z,2.1
2023-02-19T21:48:28.852Z,2.1
2023-02-19T21:51:28.944Z,2.1
2023-02-19T21:54:33.557Z,1.6
2023-02-19T21:57:29.349Z,1.6
2023-02-19T22:00:30.107Z,1.6
2023-02-19T22:03:29.595Z,1.6
2023-02-19T22:06:33.516Z,1.2
2023-02-19T22:09:29.550Z,1.2
2023-02-19T22:12:28.751Z,1.2
2023-02-19T22:15:32.849Z,0.8
2023-02-19T22:18:29.390Z,0.8
2023-02-19T22:21:28.998Z,0.8
2023-02-19T22:24:32.895Z,0.8
2023-02-19T22:27:29.724Z,0.8
2023-02-19T22:30:30.111Z,0.8
2023-02-19T22:33:33.433Z,0.8
2023-02-19T22:36:29.131Z,0.8
2023-02-19T22:39:29.357Z,0.8
2023-02-19T22:42:29.676Z,0.8
2023-02-19T22:45:33.157Z,0.8
2023-02-19T22:48:31.056Z,0.8
2023-02-19T22:51:29.815Z,0.8
2023-02-19T22:54:33.202Z,0.8
2023-02-19T22:57:28.968Z,0.8
2023-02-19T23:00:32.503Z,0.8
2023-02-19T23:03:32.655Z,0.8
2023-02-19T23:06:29.305Z,0.8
2023-02-19T23:09:28.750Z,0.8
2023-02-19T23:12:32.331Z,0.8
2023-02-19T23:15:28.870Z,0.8
2023-02-19T23:18:28.951Z,0.8
2023-02-19T23:21:29.144Z,0.8
2023-02-19T23:24:33.071Z,0.8
2023-02-19T23:27:28.877Z,0.8
2023-02-19T23:30:29.611Z,0.8
2023-02-19T23:33:32.898Z,0.8
2023-02-19T23:36:29.233Z,0.8
2023-02-19T23:39:28.988Z,0.8
2023-02-19T23:42:33.071Z,0.8
2023-02-19T23:45:29.596Z,0.8
2023-02-19T23:48:28.827Z,0.8
2023-02-19T23:51:32.778Z,0.8
2023-02-19T23:54:29.586Z,0.8
2023-02-19T23:57:28.651Z,0.8
